sensor_id;sensor_type;location;lat;lon;timestamp;pressure;altitude;pressure_sealevel;temperature;humidity
77939;BME280;67136;47.546;21.630;2023-10-31T00:01:37;99532.78;;;12.17;77.06
77939;BME280;67136;47.546;21.630;2023-10-31T00:04:43;99537.38;;;12.23;77.07
77939;BME280;67136;47.546;21.630;2023-10-31T00:07:53;99537.16;;;12.42;73.99
77939;BME280;67136;47.546;21.630;2023-10-31T00:10:56;99524.41;;;12.47;73.43
77939;BME280;67136;47.546;21.630;2023-10-31T00:14:03;99529.78;;;12.80;70.98
77939;BME280;67136;47.546;21.630;2023-10-31T00:17:31;99525.56;;;12.95;69.53
77939;BME280;67136;47.546;21.630;2023-10-31T00:20:40;99525.91;;;12.92;71.04
77939;BME280;67136;47.546;21.630;2023-10-31T00:23:52;99520.59;;;13.25;67.04
77939;BME280;67136;47.546;21.630;2023-10-31T00:27:02;99510.22;;;13.08;69.40
77939;BME280;67136;47.546;21.630;2023-10-31T00:30:11;99510.34;;;12.98;72.66
77939;BME280;67136;47.546;21.630;2023-10-31T00:33:16;99500.78;;;12.97;68.59
77939;BME280;67136;47.546;21.630;2023-10-31T00:36:23;99503.66;;;13.12;67.49
77939;BME280;67136;47.546;21.630;2023-10-31T00:39:33;99496.13;;;13.17;66.65
77939;BME280;67136;47.546;21.630;2023-10-31T00:42:38;99482.94;;;13.01;69.81
77939;BME280;67136;47.546;21.630;2023-10-31T00:45:55;99484.97;;;13.07;67.48
77939;BME280;67136;47.546;21.630;2023-10-31T00:49:16;99479.38;;;13.02;67.93
77939;BME280;67136;47.546;21.630;2023-10-31T00:52:26;99475.13;;;13.17;66.02
77939;BME280;67136;47.546;21.630;2023-10-31T00:55:31;99474.47;;;13.15;66.61
77939;BME280;67136;47.546;21.630;2023-10-31T00:58:36;99484.47;;;13.03;68.02
77939;BME280;67136;47.546;21.630;2023-10-31T01:01:54;99474.78;;;13.20;66.02
77939;BME280;67136;47.546;21.630;2023-10-31T01:05:02;99469.53;;;13.36;64.89
77939;BME280;67136;47.546;21.630;2023-10-31T01:08:08;99466.59;;;13.23;66.41
77939;BME280;67136;47.546;21.630;2023-10-31T01:11:13;99454.44;;;13.30;64.62
77939;BME280;67136;47.546;21.630;2023-10-31T01:14:28;99458.38;;;13.26;66.37
77939;BME280;67136;47.546;21.630;2023-10-31T01:17:33;99451.84;;;13.22;65.36
77939;BME280;67136;47.546;21.630;2023-10-31T01:20:38;99447.53;;;13.13;67.35
77939;BME280;67136;47.546;21.630;2023-10-31T01:23:55;99451.81;;;13.06;74.38
77939;BME280;67136;47.546;21.630;2023-10-31T01:26:58;99444.59;;;13.08;66.69
77939;BME280;67136;47.546;21.630;2023-10-31T01:30:09;99443.78;;;13.39;64.05
77939;BME280;67136;47.546;21.630;2023-10-31T01:33:13;99434.59;;;13.27;64.45
77939;BME280;67136;47.546;21.630;2023-10-31T01:36:28;99434.41;;;13.13;65.42
77939;BME280;67136;47.546;21.630;2023-10-31T01:39:38;99427.53;;;13.04;66.29
77939;BME280;67136;47.546;21.630;2023-10-31T01:42:46;99417.88;;;13.20;64.34
77939;BME280;67136;47.546;21.630;2023-10-31T01:45:53;99409.19;;;13.12;64.91
77939;BME280;67136;47.546;21.630;2023-10-31T01:49:02;99414.72;;;13.09;64.74
77939;BME280;67136;47.546;21.630;2023-10-31T01:52:06;99410.31;;;13.09;65.66
77939;BME280;67136;47.546;21.630;2023-10-31T01:55:13;99408.50;;;13.18;63.68
77939;BME280;67136;47.546;21.630;2023-10-31T01:58:36;99404.72;;;13.28;63.76
77939;BME280;67136;47.546;21.630;2023-10-31T02:01:55;99401.31;;;13.12;63.89
77939;BME280;67136;47.546;21.630;2023-10-31T02:05:00;99400.78;;;13.32;62.24
77939;BME280;67136;47.546;21.630;2023-10-31T02:08:06;99397.16;;;13.17;63.62
77939;BME280;67136;47.546;21.630;2023-10-31T02:11:10;99397.84;;;13.19;62.84
77939;BME280;67136;47.546;21.630;2023-10-31T02:14:15;99392.41;;;13.21;62.91
77939;BME280;67136;47.546;21.630;2023-10-31T02:17:18;99382.22;;;13.50;61.16
77939;BME280;67136;47.546;21.630;2023-10-31T02:20:25;99377.94;;;13.57;60.75
77939;BME280;67136;47.546;21.630;2023-10-31T02:23:30;99376.75;;;13.67;60.39
77939;BME280;67136;47.546;21.630;2023-10-31T02:26:36;99362.09;;;13.89;58.96
77939;BME280;67136;47.546;21.630;2023-10-31T02:29:42;99365.53;;;13.82;60.27
77939;BME280;67136;47.546;21.630;2023-10-31T02:32:49;99351.69;;;13.57;65.04
77939;BME280;67136;47.546;21.630;2023-10-31T02:35:57;99358.88;;;13.63;60.07
77939;BME280;67136;47.546;21.630;2023-10-31T02:39:01;99350.00;;;13.56;60.58
77939;BME280;67136;47.546;21.630;2023-10-31T02:42:07;99349.22;;;13.47;60.93
77939;BME280;67136;47.546;21.630;2023-10-31T02:45:12;99345.00;;;13.38;60.92
77939;BME280;67136;47.546;21.630;2023-10-31T02:48:23;99348.13;;;13.26;63.94
77939;BME280;67136;47.546;21.630;2023-10-31T02:51:27;99349.03;;;13.65;60.00
77939;BME280;67136;47.546;21.630;2023-10-31T02:54:32;99346.41;;;13.57;59.75
77939;BME280;67136;47.546;21.630;2023-10-31T02:57:38;99353.59;;;13.71;63.91
77939;BME280;67136;47.546;21.630;2023-10-31T03:00:48;99350.47;;;14.45;55.92
77939;BME280;67136;47.546;21.630;2023-10-31T03:03:53;99349.78;;;14.51;55.32
77939;BME280;67136;47.546;21.630;2023-10-31T03:06:58;99351.94;;;14.47;55.76
77939;BME280;67136;47.546;21.630;2023-10-31T03:10:03;99351.59;;;14.50;56.39
77939;BME280;67136;47.546;21.630;2023-10-31T03:13:11;99345.94;;;14.61;55.17
77939;BME280;67136;47.546;21.630;2023-10-31T03:16:18;99353.34;;;14.80;54.27
77939;BME280;67136;47.546;21.630;2023-10-31T03:19:32;99347.50;;;14.70;58.68
77939;BME280;67136;47.546;21.630;2023-10-31T03:22:42;99343.66;;;14.81;54.92
77939;BME280;67136;47.546;21.630;2023-10-31T03:25:51;99331.19;;;15.12;53.86
77939;BME280;67136;47.546;21.630;2023-10-31T03:29:00;99335.03;;;15.24;52.46
77939;BME280;67136;47.546;21.630;2023-10-31T03:32:06;99336.13;;;15.52;51.46
77939;BME280;67136;47.546;21.630;2023-10-31T03:35:15;99328.22;;;15.52;52.99
77939;BME280;67136;47.546;21.630;2023-10-31T03:38:19;99331.66;;;15.53;51.63
77939;BME280;67136;47.546;21.630;2023-10-31T03:41:28;99323.37;;;15.56;54.65
77939;BME280;67136;47.546;21.630;2023-10-31T03:44:33;99324.38;;;15.69;50.90
77939;BME280;67136;47.546;21.630;2023-10-31T03:47:37;99321.00;;;15.90;50.33
77939;BME280;67136;47.546;21.630;2023-10-31T03:50:52;99334.75;;;15.85;50.66
77939;BME280;67136;47.546;21.630;2023-10-31T03:54:07;99333.91;;;15.85;51.00
77939;BME280;67136;47.546;21.630;2023-10-31T03:57:11;99324.03;;;15.72;51.53
77939;BME280;67136;47.546;21.630;2023-10-31T04:00:27;99327.47;;;15.87;51.45
77939;BME280;67136;47.546;21.630;2023-10-31T04:03:38;99334.91;;;15.98;54.31
77939;BME280;67136;47.546;21.630;2023-10-31T04:06:43;99338.63;;;15.89;52.47
77939;BME280;67136;47.546;21.630;2023-10-31T04:09:51;99327.94;;;15.91;54.23
77939;BME280;67136;47.546;21.630;2023-10-31T04:12:55;99332.28;;;15.84;59.10
77939;BME280;67136;47.546;21.630;2023-10-31T04:16:01;99322.44;;;16.07;50.98
77939;BME280;67136;47.546;21.630;2023-10-31T04:19:07;99332.59;;;16.10;51.15
77939;BME280;67136;47.546;21.630;2023-10-31T04:22:12;99330.50;;;16.20;52.59
77939;BME280;67136;47.546;21.630;2023-10-31T04:25:40;99319.38;;;16.25;53.89
77939;BME280;67136;47.546;21.630;2023-10-31T04:28:45;99303.25;;;16.34;50.55
77939;BME280;67136;47.546;21.630;2023-10-31T04:31:55;99303.78;;;16.44;51.39
77939;BME280;67136;47.546;21.630;2023-10-31T04:34:59;99303.78;;;16.44;57.67
77939;BME280;67136;47.546;21.630;2023-10-31T04:38:15;99296.31;;;16.69;48.84
77939;BME280;67136;47.546;21.630;2023-10-31T04:41:28;99299.31;;;16.87;48.21
77939;BME280;67136;47.546;21.630;2023-10-31T04:44:40;99303.91;;;16.99;50.12
77939;BME280;67136;47.546;21.630;2023-10-31T04:48:00;99287.94;;;16.86;53.90
77939;BME280;67136;47.546;21.630;2023-10-31T04:51:15;99278.97;;;17.08;48.65
77939;BME280;67136;47.546;21.630;2023-10-31T04:54:39;99282.84;;;17.12;51.08
77939;BME280;67136;47.546;21.630;2023-10-31T04:57:49;99289.41;;;17.16;47.41
77939;BME280;67136;47.546;21.630;2023-10-31T05:00:54;99274.47;;;17.36;48.55
77939;BME280;67136;47.546;21.630;2023-10-31T05:04:10;99273.19;;;17.54;45.84
77939;BME280;67136;47.546;21.630;2023-10-31T05:07:18;99287.28;;;17.67;45.08
77939;BME280;67136;47.546;21.630;2023-10-31T05:10:21;99294.22;;;17.75;44.82
77939;BME280;67136;47.546;21.630;2023-10-31T05:13:27;99300.37;;;17.82;44.41
77939;BME280;67136;47.546;21.630;2023-10-31T05:16:40;99320.41;;;17.63;46.28
77939;BME280;67136;47.546;21.630;2023-10-31T05:19:43;99335.56;;;17.76;45.28
77939;BME280;67136;47.546;21.630;2023-10-31T05:22:59;99353.66;;;17.79;44.40
77939;BME280;67136;47.546;21.630;2023-10-31T05:26:13;99358.50;;;17.69;45.91
77939;BME280;67136;47.546;21.630;2023-10-31T05:29:20;99360.50;;;17.67;45.43
77939;BME280;67136;47.546;21.630;2023-10-31T05:32:25;99367.41;;;17.68;45.09
77939;BME280;67136;47.546;21.630;2023-10-31T05:35:31;99356.97;;;17.53;49.15
77939;BME280;67136;47.546;21.630;2023-10-31T05:38:42;99355.00;;;17.40;47.55
77939;BME280;67136;47.546;21.630;2023-10-31T05:41:54;99348.47;;;17.36;47.05
77939;BME280;67136;47.546;21.630;2023-10-31T05:45:07;99363.31;;;17.37;46.94
77939;BME280;67136;47.546;21.630;2023-10-31T05:48:21;99355.34;;;17.31;50.90
77939;BME280;67136;47.546;21.630;2023-10-31T05:51:24;99350.78;;;17.18;51.07
77939;BME280;67136;47.546;21.630;2023-10-31T05:54:31;99365.31;;;17.08;49.74
77939;BME280;67136;47.546;21.630;2023-10-31T05:57:43;99358.91;;;16.96;49.71
77939;BME280;67136;47.546;21.630;2023-10-31T06:00:48;99372.44;;;16.86;55.85
77939;BME280;67136;47.546;21.630;2023-10-31T06:04:01;99371.19;;;16.82;52.74
77939;BME280;67136;47.546;21.630;2023-10-31T06:07:10;99369.69;;;16.94;50.60
77939;BME280;67136;47.546;21.630;2023-10-31T06:10:16;99363.91;;;16.84;51.97
77939;BME280;67136;47.546;21.630;2023-10-31T06:13:26;99353.00;;;16.94;54.57
77939;BME280;67136;47.546;21.630;2023-10-31T06:16:43;99347.53;;;16.95;51.87
77939;BME280;67136;47.546;21.630;2023-10-31T06:19:57;99347.34;;;16.97;52.10
77939;BME280;67136;47.546;21.630;2023-10-31T06:23:07;99343.72;;;16.98;49.78
77939;BME280;67136;47.546;21.630;2023-10-31T06:26:09;99339.25;;;16.98;52.47
77939;BME280;67136;47.546;21.630;2023-10-31T06:29:25;99334.72;;;16.92;52.32
77939;BME280;67136;47.546;21.630;2023-10-31T06:32:49;99339.56;;;16.89;56.28
77939;BME280;67136;47.546;21.630;2023-10-31T06:35:58;99338.22;;;16.99;52.68
77939;BME280;67136;47.546;21.630;2023-10-31T06:39:04;99320.56;;;17.00;49.50
77939;BME280;67136;47.546;21.630;2023-10-31T06:42:12;99318.47;;;16.95;50.34
77939;BME280;67136;47.546;21.630;2023-10-31T06:45:20;99317.03;;;17.20;49.35
77939;BME280;67136;47.546;21.630;2023-10-31T06:48:28;99302.84;;;17.21;56.45
77939;BME280;67136;47.546;21.630;2023-10-31T06:51:34;99307.63;;;17.39;48.66
77939;BME280;67136;47.546;21.630;2023-10-31T06:54:39;99305.19;;;17.37;50.51
77939;BME280;67136;47.546;21.630;2023-10-31T06:57:42;99290.88;;;17.53;47.91
77939;BME280;67136;47.546;21.630;2023-10-31T07:00:54;99280.56;;;17.65;48.12
77939;BME280;67136;47.546;21.630;2023-10-31T07:04:04;99276.31;;;17.70;46.60
77939;BME280;67136;47.546;21.630;2023-10-31T07:07:18;99282.06;;;17.80;45.96
77939;BME280;67136;47.546;21.630;2023-10-31T07:10:25;99288.19;;;17.87;51.00
77939;BME280;67136;47.546;21.630;2023-10-31T07:13:32;99288.62;;;17.91;47.63
77939;BME280;67136;47.546;21.630;2023-10-31T07:16:47;99294.34;;;18.01;48.70
77939;BME280;67136;47.546;21.630;2023-10-31T07:19:52;99311.81;;;17.89;46.65
77939;BME280;67136;47.546;21.630;2023-10-31T07:23:03;99316.28;;;17.95;46.96
77939;BME280;67136;47.546;21.630;2023-10-31T07:26:06;99301.84;;;17.91;47.64
77939;BME280;67136;47.546;21.630;2023-10-31T07:29:17;99334.81;;;17.95;47.17
77939;BME280;67136;47.546;21.630;2023-10-31T07:32:23;99321.59;;;17.95;48.68
77939;BME280;67136;47.546;21.630;2023-10-31T07:35:28;99314.28;;;17.97;47.83
77939;BME280;67136;47.546;21.630;2023-10-31T07:38:33;99308.59;;;18.00;48.13
77939;BME280;67136;47.546;21.630;2023-10-31T07:41:53;99282.78;;;18.08;47.49
77939;BME280;67136;47.546;21.630;2023-10-31T07:45:07;99290.53;;;18.16;46.66
77939;BME280;67136;47.546;21.630;2023-10-31T07:48:16;99281.41;;;18.25;47.43
77939;BME280;67136;47.546;21.630;2023-10-31T07:51:25;99287.09;;;18.22;47.65
77939;BME280;67136;47.546;21.630;2023-10-31T07:54:39;99293.63;;;18.33;47.26
77939;BME280;67136;47.546;21.630;2023-10-31T07:57:44;99297.50;;;18.37;46.56
77939;BME280;67136;47.546;21.630;2023-10-31T08:01:04;99301.44;;;18.41;45.56
77939;BME280;67136;47.546;21.630;2023-10-31T08:04:14;99308.75;;;18.52;48.37
77939;BME280;67136;47.546;21.630;2023-10-31T08:07:20;99295.31;;;18.60;45.75
77939;BME280;67136;47.546;21.630;2023-10-31T08:10:34;99294.97;;;18.76;47.07
77939;BME280;67136;47.546;21.630;2023-10-31T08:13:42;99288.84;;;18.82;45.45
77939;BME280;67136;47.546;21.630;2023-10-31T08:16:54;99282.31;;;18.91;45.67
77939;BME280;67136;47.546;21.630;2023-10-31T08:20:01;99289.66;;;18.89;44.87
77939;BME280;67136;47.546;21.630;2023-10-31T08:23:07;99305.13;;;18.92;46.55
77939;BME280;67136;47.546;21.630;2023-10-31T08:26:27;99316.16;;;18.89;45.88
77939;BME280;67136;47.546;21.630;2023-10-31T08:29:34;99302.06;;;18.82;44.83
77939;BME280;67136;47.546;21.630;2023-10-31T08:32:38;99299.00;;;18.85;45.71
77939;BME280;67136;47.546;21.630;2023-10-31T08:35:45;99292.09;;;18.91;45.15
77939;BME280;67136;47.546;21.630;2023-10-31T08:38:55;99307.00;;;18.92;45.30
77939;BME280;67136;47.546;21.630;2023-10-31T08:42:05;99310.62;;;18.84;49.69
77939;BME280;67136;47.546;21.630;2023-10-31T08:45:14;99302.28;;;18.74;47.71
77939;BME280;67136;47.546;21.630;2023-10-31T08:48:20;99304.72;;;18.69;47.51
77939;BME280;67136;47.546;21.630;2023-10-31T08:51:23;99296.97;;;18.61;48.80
77939;BME280;67136;47.546;21.630;2023-10-31T08:54:33;99306.31;;;18.44;50.82
77939;BME280;67136;47.546;21.630;2023-10-31T08:57:35;99282.22;;;18.26;50.83
77939;BME280;67136;47.546;21.630;2023-10-31T09:00:39;99279.78;;;18.24;51.48
77939;BME280;67136;47.546;21.630;2023-10-31T09:04:00;99278.13;;;18.30;50.40
77939;BME280;67136;47.546;21.630;2023-10-31T09:07:10;99270.88;;;18.45;50.27
77939;BME280;67136;47.546;21.630;2023-10-31T09:10:23;99274.56;;;18.57;49.51
77939;BME280;67136;47.546;21.630;2023-10-31T09:13:31;99265.19;;;18.68;50.51
77939;BME280;67136;47.546;21.630;2023-10-31T09:16:37;99255.00;;;18.78;48.85
77939;BME280;67136;47.546;21.630;2023-10-31T09:19:43;99262.13;;;18.90;52.96
77939;BME280;67136;47.546;21.630;2023-10-31T09:22:51;99249.91;;;19.02;48.36
77939;BME280;67136;47.546;21.630;2023-10-31T09:26:02;99230.75;;;19.07;47.68
77939;BME280;67136;47.546;21.630;2023-10-31T09:29:12;99233.00;;;19.03;46.71
77939;BME280;67136;47.546;21.630;2023-10-31T09:32:35;99240.31;;;19.08;46.19
77939;BME280;67136;47.546;21.630;2023-10-31T09:35:52;99231.91;;;19.24;50.87
77939;BME280;67136;47.546;21.630;2023-10-31T09:39:04;99233.13;;;19.41;45.67
77939;BME280;67136;47.546;21.630;2023-10-31T09:42:10;99207.63;;;19.46;45.36
77939;BME280;67136;47.546;21.630;2023-10-31T09:45:23;99224.88;;;19.68;49.61
77939;BME280;67136;47.546;21.630;2023-10-31T09:48:38;99211.84;;;19.67;44.11
77939;BME280;67136;47.546;21.630;2023-10-31T09:51:51;99200.31;;;19.79;43.35
77939;BME280;67136;47.546;21.630;2023-10-31T09:55:05;99203.84;;;19.73;42.79
77939;BME280;67136;47.546;21.630;2023-10-31T09:58:21;99206.66;;;19.78;43.20
77939;BME280;67136;47.546;21.630;2023-10-31T10:01:24;99204.62;;;19.81;43.15
77939;BME280;67136;47.546;21.630;2023-10-31T10:04:33;99187.84;;;19.87;43.19
77939;BME280;67136;47.546;21.630;2023-10-31T10:07:41;99160.03;;;19.96;44.35
77939;BME280;67136;47.546;21.630;2023-10-31T10:10:50;99173.88;;;19.98;43.13
77939;BME280;67136;47.546;21.630;2023-10-31T10:13:56;99169.69;;;20.21;43.37
77939;BME280;67136;47.546;21.630;2023-10-31T10:17:17;99142.94;;;20.23;43.72
77939;BME280;67136;47.546;21.630;2023-10-31T10:20:30;99176.91;;;20.39;45.68
77939;BME280;67136;47.546;21.630;2023-10-31T10:23:37;99170.56;;;20.15;43.51
77939;BME280;67136;47.546;21.630;2023-10-31T10:26:43;99152.59;;;20.11;43.05
77939;BME280;67136;47.546;21.630;2023-10-31T10:29:55;99148.09;;;20.18;45.16
77939;BME280;67136;47.546;21.630;2023-10-31T10:33:05;99142.97;;;20.16;47.59
77939;BME280;67136;47.546;21.630;2023-10-31T10:36:10;99138.00;;;19.95;44.89
77939;BME280;67136;47.546;21.630;2023-10-31T10:39:21;99133.44;;;20.02;45.32
77939;BME280;67136;47.546;21.630;2023-10-31T10:42:31;99132.63;;;20.02;52.15
77939;BME280;67136;47.546;21.630;2023-10-31T10:45:37;99128.16;;;20.02;48.99
77939;BME280;67136;47.546;21.630;2023-10-31T10:48:46;99119.03;;;20.23;45.09
77939;BME280;67136;47.546;21.630;2023-10-31T10:51:58;99102.09;;;20.42;45.03
77939;BME280;67136;47.546;21.630;2023-10-31T10:55:33;99098.91;;;20.33;45.85
77939;BME280;67136;47.546;21.630;2023-10-31T10:58:51;99093.69;;;20.45;44.91
77939;BME280;67136;47.546;21.630;2023-10-31T11:02:00;99084.94;;;20.44;43.85
77939;BME280;67136;47.546;21.630;2023-10-31T11:05:09;99080.75;;;20.91;44.80
77939;BME280;67136;47.546;21.630;2023-10-31T11:08:16;99082.06;;;20.46;43.58
77939;BME280;67136;47.546;21.630;2023-10-31T11:11:23;99079.03;;;20.60;43.87
77939;BME280;67136;47.546;21.630;2023-10-31T11:14:31;99083.44;;;20.73;44.41
77939;BME280;67136;47.546;21.630;2023-10-31T11:17:47;99069.97;;;21.22;42.66
77939;BME280;67136;47.546;21.630;2023-10-31T11:20:54;99061.28;;;21.45;41.40
77939;BME280;67136;47.546;21.630;2023-10-31T11:24:02;99057.94;;;21.49;41.22
77939;BME280;67136;47.546;21.630;2023-10-31T11:27:10;99054.75;;;22.11;45.10
77939;BME280;67136;47.546;21.630;2023-10-31T11:30:30;99043.41;;;23.13;38.71
77939;BME280;67136;47.546;21.630;2023-10-31T11:33:40;99032.31;;;23.94;36.70
77939;BME280;67136;47.546;21.630;2023-10-31T11:36:46;99038.13;;;23.58;38.13
77939;BME280;67136;47.546;21.630;2023-10-31T11:43:18;99026.28;;;25.98;33.59
77939;BME280;67136;47.546;21.630;2023-10-31T11:46:33;99022.53;;;26.31;31.09
77939;BME280;67136;47.546;21.630;2023-10-31T11:49:46;99019.25;;;24.86;34.30
77939;BME280;67136;47.546;21.630;2023-10-31T11:53:14;99013.06;;;23.76;35.81
77939;BME280;67136;47.546;21.630;2023-10-31T11:56:20;99002.34;;;22.86;36.71
77939;BME280;67136;47.546;21.630;2023-10-31T11:59:35;99003.59;;;22.84;38.39
77939;BME280;67136;47.546;21.630;2023-10-31T12:02:59;99004.38;;;22.33;38.15
77939;BME280;67136;47.546;21.630;2023-10-31T12:06:17;98985.63;;;21.93;38.69
77939;BME280;67136;47.546;21.630;2023-10-31T12:09:28;98972.09;;;21.83;38.62
77939;BME280;67136;47.546;21.630;2023-10-31T12:12:36;98964.31;;;21.70;38.49
77939;BME280;67136;47.546;21.630;2023-10-31T12:15:51;98974.72;;;21.72;39.99
77939;BME280;67136;47.546;21.630;2023-10-31T12:19:04;98945.66;;;21.70;41.33
77939;BME280;67136;47.546;21.630;2023-10-31T12:22:14;98947.63;;;21.63;39.16
77939;BME280;67136;47.546;21.630;2023-10-31T12:25:19;98929.34;;;21.55;39.01
77939;BME280;67136;47.546;21.630;2023-10-31T12:28:22;98922.28;;;21.49;39.08
77939;BME280;67136;47.546;21.630;2023-10-31T12:31:28;98907.81;;;21.45;39.33
77939;BME280;67136;47.546;21.630;2023-10-31T12:34:32;98907.00;;;21.45;39.85
77939;BME280;67136;47.546;21.630;2023-10-31T12:37:43;98913.16;;;21.45;40.82
77939;BME280;67136;47.546;21.630;2023-10-31T12:40:48;98893.94;;;21.43;39.86
77939;BME280;67136;47.546;21.630;2023-10-31T12:44:00;98882.00;;;21.46;39.20
77939;BME280;67136;47.546;21.630;2023-10-31T12:47:08;98878.69;;;21.50;39.07
77939;BME280;67136;47.546;21.630;2023-10-31T12:50:23;98864.09;;;21.64;38.95
77939;BME280;67136;47.546;21.630;2023-10-31T12:53:32;98857.84;;;21.70;39.21
77939;BME280;67136;47.546;21.630;2023-10-31T12:56:43;98870.94;;;21.49;38.96
77939;BME280;67136;47.546;21.630;2023-10-31T12:59:49;98845.47;;;21.53;38.95
77939;BME280;67136;47.546;21.630;2023-10-31T13:03:05;98846.06;;;21.43;40.89
77939;BME280;67136;47.546;21.630;2023-10-31T13:06:17;98844.53;;;21.47;40.80
77939;BME280;67136;47.546;21.630;2023-10-31T13:09:39;98835.87;;;21.40;39.66
77939;BME280;67136;47.546;21.630;2023-10-31T13:12:51;98841.44;;;21.50;39.81
77939;BME280;67136;47.546;21.630;2023-10-31T13:16:01;98845.81;;;21.56;40.02
77939;BME280;67136;47.546;21.630;2023-10-31T13:19:07;98834.25;;;21.62;43.07
77939;BME280;67136;47.546;21.630;2023-10-31T13:22:12;98826.84;;;21.64;39.42
77939;BME280;67136;47.546;21.630;2023-10-31T13:25:22;98828.59;;;21.59;40.36
77939;BME280;67136;47.546;21.630;2023-10-31T13:28:29;98832.41;;;21.51;40.55
77939;BME280;67136;47.546;21.630;2023-10-31T13:31:36;98829.84;;;21.56;39.82
77939;BME280;67136;47.546;21.630;2023-10-31T13:34:42;98822.59;;;21.52;42.08
77939;BME280;67136;47.546;21.630;2023-10-31T13:37:49;98820.16;;;21.50;40.50
77939;BME280;67136;47.546;21.630;2023-10-31T13:40:55;98796.19;;;21.39;41.12
77939;BME280;67136;47.546;21.630;2023-10-31T13:44:05;98805.59;;;21.41;44.65
77939;BME280;67136;47.546;21.630;2023-10-31T13:47:15;98801.53;;;21.27;41.55
77939;BME280;67136;47.546;21.630;2023-10-31T13:50:20;98785.81;;;21.26;41.31
77939;BME280;67136;47.546;21.630;2023-10-31T13:53:26;98780.59;;;21.19;44.31
77939;BME280;67136;47.546;21.630;2023-10-31T13:56:32;98774.59;;;21.12;41.76
77939;BME280;67136;47.546;21.630;2023-10-31T13:59:39;98789.03;;;21.05;41.95
77939;BME280;67136;47.546;21.630;2023-10-31T14:02:51;98774.81;;;20.99;42.68
77939;BME280;67136;47.546;21.630;2023-10-31T14:06:00;98797.25;;;21.03;42.78
77939;BME280;67136;47.546;21.630;2023-10-31T14:09:13;98774.81;;;20.99;42.12
77939;BME280;67136;47.546;21.630;2023-10-31T14:12:30;98794.59;;;21.03;41.55
77939;BME280;67136;47.546;21.630;2023-10-31T14:15:36;98803.53;;;20.90;41.62
77939;BME280;67136;47.546;21.630;2023-10-31T14:18:46;98803.66;;;20.84;42.34
77939;BME280;67136;47.546;21.630;2023-10-31T14:21:55;98816.12;;;20.83;42.13
77939;BME280;67136;47.546;21.630;2023-10-31T14:25:02;98845.41;;;16.32;81.97
77939;BME280;67136;47.546;21.630;2023-10-31T14:28:15;98853.06;;;14.54;96.72
77939;BME280;67136;47.546;21.630;2023-10-31T14:31:22;98830.28;;;14.82;96.29
77939;BME280;67136;47.546;21.630;2023-10-31T14:34:25;98825.09;;;15.78;87.28
77939;BME280;67136;47.546;21.630;2023-10-31T14:37:32;98824.91;;;15.80;87.50
77939;BME280;67136;47.546;21.630;2023-10-31T14:40:36;98839.41;;;15.35;93.35
77939;BME280;67136;47.546;21.630;2023-10-31T14:43:42;98859.56;;;14.58;100.00
77939;BME280;67136;47.546;21.630;2023-10-31T14:46:51;98828.72;;;13.52;100.00
77939;BME280;67136;47.546;21.630;2023-10-31T14:50:09;98825.19;;;13.59;100.00
77939;BME280;67136;47.546;21.630;2023-10-31T14:53:17;98842.03;;;13.80;100.00
77939;BME280;67136;47.546;21.630;2023-10-31T14:56:34;98862.41;;;13.92;100.00
77939;BME280;67136;47.546;21.630;2023-10-31T14:59:49;98970.53;;;14.04;100.00
77939;BME280;67136;47.546;21.630;2023-10-31T15:02:57;99050.91;;;14.35;100.00
77939;BME280;67136;47.546;21.630;2023-10-31T15:06:02;99071.28;;;14.33;100.00
77939;BME280;67136;47.546;21.630;2023-10-31T15:09:09;99112.66;;;14.39;100.00
77939;BME280;67136;47.546;21.630;2023-10-31T15:12:13;99111.69;;;14.18;100.00
77939;BME280;67136;47.546;21.630;2023-10-31T15:15:17;99101.63;;;13.84;100.00
77939;BME280;67136;47.546;21.630;2023-10-31T15:18:23;99078.28;;;13.66;100.00
77939;BME280;67136;47.546;21.630;2023-10-31T15:21:27;99043.19;;;13.59;100.00
77939;BME280;67136;47.546;21.630;2023-10-31T15:24:30;99053.97;;;13.64;100.00
77939;BME280;67136;47.546;21.630;2023-10-31T15:27:42;99054.44;;;13.68;100.00
77939;BME280;67136;47.546;21.630;2023-10-31T15:30:51;99045.22;;;13.72;100.00
77939;BME280;67136;47.546;21.630;2023-10-31T15:33:56;99058.75;;;13.84;100.00
77939;BME280;67136;47.546;21.630;2023-10-31T15:37:02;99055.69;;;13.95;100.00
77939;BME280;67136;47.546;21.630;2023-10-31T15:40:10;99054.09;;;14.08;100.00
77939;BME280;67136;47.546;21.630;2023-10-31T15:43:13;99047.97;;;14.16;100.00
77939;BME280;67136;47.546;21.630;2023-10-31T15:46:17;99037.19;;;14.25;100.00
77939;BME280;67136;47.546;21.630;2023-10-31T15:49:19;99032.22;;;14.45;100.00
77939;BME280;67136;47.546;21.630;2023-10-31T15:52:22;99053.31;;;14.22;100.00
77939;BME280;67136;47.546;21.630;2023-10-31T15:55:35;99064.03;;;14.35;100.00
77939;BME280;67136;47.546;21.630;2023-10-31T15:58:41;99075.47;;;14.42;100.00
77939;BME280;67136;47.546;21.630;2023-10-31T16:01:49;99085.63;;;14.45;100.00
77939;BME280;67136;47.546;21.630;2023-10-31T16:05:01;99086.37;;;14.39;100.00
77939;BME280;67136;47.546;21.630;2023-10-31T16:08:09;99107.69;;;14.44;100.00
77939;BME280;67136;47.546;21.630;2023-10-31T16:11:15;99114.28;;;14.40;100.00
77939;BME280;67136;47.546;21.630;2023-10-31T16:14:17;99136.91;;;14.49;100.00
77939;BME280;67136;47.546;21.630;2023-10-31T16:17:24;99117.06;;;14.61;100.00
77939;BME280;67136;47.546;21.630;2023-10-31T16:20:30;99135.78;;;14.44;100.00
77939;BME280;67136;47.546;21.630;2023-10-31T16:23:33;99179.97;;;14.48;100.00
77939;BME280;67136;47.546;21.630;2023-10-31T16:26:40;99212.59;;;14.39;100.00
77939;BME280;67136;47.546;21.630;2023-10-31T16:29:50;99218.66;;;14.17;100.00